sensor_id;sensor_type;location;lat;lon;timestamp;P1;durP1;ratioP1;P2;durP2;ratioP2
3718;SDS011;1875;52.492;6.860;2022-10-16T00:01:06;137.13;;;42.43;;
3718;SDS011;1875;52.492;6.860;2022-10-16T00:03:34;141.47;;;42.47;;
3718;SDS011;1875;52.492;6.860;2022-10-16T00:06:02;136.33;;;41.87;;
3718;SDS011;1875;52.492;6.860;2022-10-16T00:08:31;142.03;;;43.87;;
3718;SDS011;1875;52.492;6.860;2022-10-16T00:10:59;140.90;;;41.73;;
3718;SDS011;1875;52.492;6.860;2022-10-16T00:13:27;141.00;;;46.73;;
3718;SDS011;1875;52.492;6.860;2022-10-16T00:15:56;145.13;;;42.57;;
3718;SDS011;1875;52.492;6.860;2022-10-16T00:18:25;143.67;;;42.07;;
3718;SDS011;1875;52.492;6.860;2022-10-16T00:20:52;139.00;;;42.90;;
3718;SDS011;1875;52.492;6.860;2022-10-16T00:23:21;141.83;;;41.57;;
3718;SDS011;1875;52.492;6.860;2022-10-16T00:25:55;142.03;;;42.20;;
3718;SDS011;1875;52.492;6.860;2022-10-16T00:28:23;145.47;;;45.87;;
3718;SDS011;1875;52.492;6.860;2022-10-16T00:30:52;142.17;;;44.00;;
3718;SDS011;1875;52.492;6.860;2022-10-16T00:33:21;133.63;;;42.90;;
3718;SDS011;1875;52.492;6.860;2022-10-16T00:35:49;140.50;;;42.27;;
3718;SDS011;1875;52.492;6.860;2022-10-16T00:38:17;142.33;;;41.93;;
3718;SDS011;1875;52.492;6.860;2022-10-16T00:40:44;145.33;;;42.13;;
3718;SDS011;1875;52.492;6.860;2022-10-16T00:43:12;143.03;;;45.93;;
3718;SDS011;1875;52.492;6.860;2022-10-16T00:45:41;139.33;;;41.97;;
3718;SDS011;1875;52.492;6.860;2022-10-16T00:48:10;145.43;;;43.87;;
3718;SDS011;1875;52.492;6.860;2022-10-16T00:50:42;144.13;;;43.37;;
3718;SDS011;1875;52.492;6.860;2022-10-16T00:53:10;142.23;;;40.80;;
3718;SDS011;1875;52.492;6.860;2022-10-16T00:55:38;142.33;;;41.97;;
3718;SDS011;1875;52.492;6.860;2022-10-16T00:58:07;143.57;;;41.90;;
3718;SDS011;1875;52.492;6.860;2022-10-16T01:00:35;145.87;;;41.70;;
3718;SDS011;1875;52.492;6.860;2022-10-16T01:03:03;147.03;;;42.57;;
3718;SDS011;1875;52.492;6.860;2022-10-16T01:05:54;146.43;;;43.50;;
3718;SDS011;1875;52.492;6.860;2022-10-16T01:08:29;148.80;;;43.27;;
3718;SDS011;1875;52.492;6.860;2022-10-16T01:11:02;139.90;;;44.27;;
3718;SDS011;1875;52.492;6.860;2022-10-16T01:13:33;146.03;;;41.23;;
3718;SDS011;1875;52.492;6.860;2022-10-16T01:16:05;148.50;;;42.67;;
3718;SDS011;1875;52.492;6.860;2022-10-16T01:18:44;150.33;;;46.27;;
3718;SDS011;1875;52.492;6.860;2022-10-16T01:21:15;151.30;;;45.53;;
3718;SDS011;1875;52.492;6.860;2022-10-16T01:23:57;151.07;;;44.30;;
3718;SDS011;1875;52.492;6.860;2022-10-16T01:26:31;147.17;;;42.17;;
3718;SDS011;1875;52.492;6.860;2022-10-16T01:29:07;149.87;;;42.57;;
3718;SDS011;1875;52.492;6.860;2022-10-16T01:31:38;146.13;;;42.17;;
3718;SDS011;1875;52.492;6.860;2022-10-16T01:34:09;149.23;;;43.17;;
3718;SDS011;1875;52.492;6.860;2022-10-16T01:36:42;150.07;;;43.77;;
3718;SDS011;1875;52.492;6.860;2022-10-16T01:39:13;139.23;;;43.27;;
3718;SDS011;1875;52.492;6.860;2022-10-16T01:41:43;144.53;;;39.90;;
3718;SDS011;1875;52.492;6.860;2022-10-16T01:44:15;152.07;;;44.27;;
3718;SDS011;1875;52.492;6.860;2022-10-16T01:46:46;150.60;;;44.73;;
3718;SDS011;1875;52.492;6.860;2022-10-16T01:49:16;156.33;;;47.20;;
3718;SDS011;1875;52.492;6.860;2022-10-16T01:51:45;145.57;;;41.10;;
3718;SDS011;1875;52.492;6.860;2022-10-16T01:54:15;147.73;;;43.37;;
3718;SDS011;1875;52.492;6.860;2022-10-16T01:56:45;147.07;;;42.13;;
3718;SDS011;1875;52.492;6.860;2022-10-16T01:59:15;149.53;;;43.60;;
3718;SDS011;1875;52.492;6.860;2022-10-16T02:01:44;146.97;;;43.63;;
3718;SDS011;1875;52.492;6.860;2022-10-16T02:04:15;149.87;;;42.73;;
3718;SDS011;1875;52.492;6.860;2022-10-16T02:06:45;145.87;;;41.20;;
3718;SDS011;1875;52.492;6.860;2022-10-16T02:09:12;145.97;;;42.97;;
3718;SDS011;1875;52.492;6.860;2022-10-16T02:11:41;150.63;;;43.60;;
3718;SDS011;1875;52.492;6.860;2022-10-16T02:14:09;144.20;;;42.30;;
3718;SDS011;1875;52.492;6.860;2022-10-16T02:16:39;149.53;;;44.93;;
3718;SDS011;1875;52.492;6.860;2022-10-16T02:19:07;151.97;;;43.53;;
3718;SDS011;1875;52.492;6.860;2022-10-16T02:21:37;151.57;;;45.43;;
3718;SDS011;1875;52.492;6.860;2022-10-16T02:24:08;151.97;;;45.80;;
3718;SDS011;1875;52.492;6.860;2022-10-16T02:26:40;147.03;;;42.63;;
3718;SDS011;1875;52.492;6.860;2022-10-16T02:29:12;146.83;;;42.07;;
3718;SDS011;1875;52.492;6.860;2022-10-16T02:31:43;153.83;;;45.07;;
3718;SDS011;1875;52.492;6.860;2022-10-16T02:34:13;152.50;;;44.23;;
3718;SDS011;1875;52.492;6.860;2022-10-16T02:36:42;149.43;;;43.20;;
3718;SDS011;1875;52.492;6.860;2022-10-16T02:39:10;150.23;;;42.10;;
3718;SDS011;1875;52.492;6.860;2022-10-16T02:41:38;155.47;;;46.93;;
3718;SDS011;1875;52.492;6.860;2022-10-16T02:44:05;150.13;;;41.97;;
3718;SDS011;1875;52.492;6.860;2022-10-16T02:46:33;151.10;;;44.80;;
3718;SDS011;1875;52.492;6.860;2022-10-16T02:49:02;151.87;;;43.20;;
3718;SDS011;1875;52.492;6.860;2022-10-16T02:51:29;153.90;;;46.87;;
3718;SDS011;1875;52.492;6.860;2022-10-16T02:53:57;153.27;;;45.10;;
3718;SDS011;1875;52.492;6.860;2022-10-16T02:56:24;151.93;;;44.63;;
3718;SDS011;1875;52.492;6.860;2022-10-16T02:58:52;152.23;;;45.07;;
3718;SDS011;1875;52.492;6.860;2022-10-16T03:01:19;159.93;;;51.83;;
3718;SDS011;1875;52.492;6.860;2022-10-16T03:03:47;151.73;;;43.50;;
3718;SDS011;1875;52.492;6.860;2022-10-16T03:06:16;147.87;;;42.90;;
3718;SDS011;1875;52.492;6.860;2022-10-16T03:08:43;159.83;;;51.90;;
3718;SDS011;1875;52.492;6.860;2022-10-16T03:11:11;141.60;;;46.33;;
3718;SDS011;1875;52.492;6.860;2022-10-16T03:13:38;151.73;;;45.00;;
3718;SDS011;1875;52.492;6.860;2022-10-16T03:16:06;151.77;;;43.40;;
3718;SDS011;1875;52.492;6.860;2022-10-16T03:18:34;152.10;;;47.30;;
3718;SDS011;1875;52.492;6.860;2022-10-16T03:21:01;153.10;;;43.40;;
3718;SDS011;1875;52.492;6.860;2022-10-16T03:23:30;152.17;;;46.87;;
3718;SDS011;1875;52.492;6.860;2022-10-16T03:25:58;149.47;;;42.77;;
3718;SDS011;1875;52.492;6.860;2022-10-16T03:28:25;153.07;;;47.00;;
3718;SDS011;1875;52.492;6.860;2022-10-16T03:30:53;149.60;;;43.80;;
3718;SDS011;1875;52.492;6.860;2022-10-16T03:33:21;156.90;;;47.17;;
3718;SDS011;1875;52.492;6.860;2022-10-16T03:35:51;148.63;;;43.07;;
3718;SDS011;1875;52.492;6.860;2022-10-16T03:38:20;149.77;;;44.50;;
3718;SDS011;1875;52.492;6.860;2022-10-16T03:40:49;173.67;;;57.40;;
3718;SDS011;1875;52.492;6.860;2022-10-16T03:43:16;154.87;;;45.33;;
3718;SDS011;1875;52.492;6.860;2022-10-16T03:45:44;148.37;;;42.10;;
3718;SDS011;1875;52.492;6.860;2022-10-16T03:48:12;152.23;;;43.13;;
3718;SDS011;1875;52.492;6.860;2022-10-16T03:50:40;150.00;;;43.23;;
3718;SDS011;1875;52.492;6.860;2022-10-16T03:53:08;148.97;;;42.83;;
3718;SDS011;1875;52.492;6.860;2022-10-16T03:55:36;143.33;;;44.57;;
3718;SDS011;1875;52.492;6.860;2022-10-16T03:58:05;154.37;;;44.60;;
3718;SDS011;1875;52.492;6.860;2022-10-16T04:00:32;154.23;;;44.60;;
3718;SDS011;1875;52.492;6.860;2022-10-16T04:03:00;154.47;;;44.47;;
3718;SDS011;1875;52.492;6.860;2022-10-16T04:05:28;154.47;;;48.17;;
3718;SDS011;1875;52.492;6.860;2022-10-16T04:07:55;142.23;;;44.87;;
3718;SDS011;1875;52.492;6.860;2022-10-16T04:10:23;148.30;;;42.17;;
3718;SDS011;1875;52.492;6.860;2022-10-16T04:12:50;154.23;;;44.03;;
3718;SDS011;1875;52.492;6.860;2022-10-16T04:15:22;154.13;;;47.60;;
3718;SDS011;1875;52.492;6.860;2022-10-16T04:17:50;155.70;;;46.90;;
3718;SDS011;1875;52.492;6.860;2022-10-16T04:20:18;162.17;;;49.30;;
3718;SDS011;1875;52.492;6.860;2022-10-16T04:22:45;143.37;;;42.97;;
3718;SDS011;1875;52.492;6.860;2022-10-16T04:25:13;148.60;;;45.63;;
3718;SDS011;1875;52.492;6.860;2022-10-16T04:27:41;152.07;;;43.00;;
3718;SDS011;1875;52.492;6.860;2022-10-16T04:30:11;148.63;;;45.20;;
3718;SDS011;1875;52.492;6.860;2022-10-16T04:32:40;154.73;;;48.47;;
3718;SDS011;1875;52.492;6.860;2022-10-16T04:35:08;151.50;;;43.23;;
3718;SDS011;1875;52.492;6.860;2022-10-16T04:37:36;154.60;;;44.53;;
3718;SDS011;1875;52.492;6.860;2022-10-16T04:40:04;158.10;;;48.93;;
3718;SDS011;1875;52.492;6.860;2022-10-16T04:42:32;153.33;;;46.00;;
3718;SDS011;1875;52.492;6.860;2022-10-16T04:44:59;153.50;;;45.63;;
3718;SDS011;1875;52.492;6.860;2022-10-16T04:47:27;158.47;;;50.60;;
3718;SDS011;1875;52.492;6.860;2022-10-16T04:49:56;155.47;;;48.00;;
3718;SDS011;1875;52.492;6.860;2022-10-16T04:52:25;153.80;;;47.30;;
3718;SDS011;1875;52.492;6.860;2022-10-16T04:54:52;149.33;;;42.90;;
3718;SDS011;1875;52.492;6.860;2022-10-16T04:57:21;155.30;;;44.63;;
3718;SDS011;1875;52.492;6.860;2022-10-16T04:59:49;151.97;;;43.40;;
3718;SDS011;1875;52.492;6.860;2022-10-16T05:02:17;143.17;;;43.97;;
3718;SDS011;1875;52.492;6.860;2022-10-16T05:04:44;150.97;;;43.90;;
3718;SDS011;1875;52.492;6.860;2022-10-16T05:07:13;150.63;;;43.47;;
3718;SDS011;1875;52.492;6.860;2022-10-16T05:09:41;150.97;;;44.70;;
3718;SDS011;1875;52.492;6.860;2022-10-16T05:12:09;142.00;;;44.10;;
3718;SDS011;1875;52.492;6.860;2022-10-16T05:14:36;141.03;;;44.50;;
3718;SDS011;1875;52.492;6.860;2022-10-16T05:17:04;145.03;;;43.20;;
3718;SDS011;1875;52.492;6.860;2022-10-16T05:19:31;151.33;;;43.63;;
3718;SDS011;1875;52.492;6.860;2022-10-16T05:21:59;143.80;;;44.10;;
3718;SDS011;1875;52.492;6.860;2022-10-16T05:24:28;155.53;;;45.23;;
3718;SDS011;1875;52.492;6.860;2022-10-16T05:26:55;144.60;;;45.43;;
3718;SDS011;1875;52.492;6.860;2022-10-16T05:29:23;145.57;;;48.03;;
3718;SDS011;1875;52.492;6.860;2022-10-16T05:31:51;152.93;;;42.57;;
3718;SDS011;1875;52.492;6.860;2022-10-16T05:34:20;153.80;;;44.50;;
3718;SDS011;1875;52.492;6.860;2022-10-16T05:36:48;146.90;;;45.20;;
3718;SDS011;1875;52.492;6.860;2022-10-16T05:39:16;123.60;;;38.97;;
3718;SDS011;1875;52.492;6.860;2022-10-16T05:41:45;128.77;;;44.20;;
3718;SDS011;1875;52.492;6.860;2022-10-16T05:44:12;138.00;;;41.67;;
3718;SDS011;1875;52.492;6.860;2022-10-16T05:46:40;135.33;;;41.50;;
3718;SDS011;1875;52.492;6.860;2022-10-16T05:49:07;126.00;;;41.17;;
3718;SDS011;1875;52.492;6.860;2022-10-16T05:51:35;133.73;;;42.67;;
3718;SDS011;1875;52.492;6.860;2022-10-16T05:54:02;136.27;;;41.10;;
3718;SDS011;1875;52.492;6.860;2022-10-16T05:56:30;143.40;;;43.27;;
3718;SDS011;1875;52.492;6.860;2022-10-16T05:58:59;141.10;;;41.60;;
3718;SDS011;1875;52.492;6.860;2022-10-16T06:01:26;147.70;;;49.40;;
3718;SDS011;1875;52.492;6.860;2022-10-16T06:03:54;139.63;;;40.40;;
3718;SDS011;1875;52.492;6.860;2022-10-16T06:06:22;140.37;;;40.97;;
3718;SDS011;1875;52.492;6.860;2022-10-16T06:08:52;139.50;;;41.37;;
3718;SDS011;1875;52.492;6.860;2022-10-16T06:11:21;144.57;;;47.90;;
3718;SDS011;1875;52.492;6.860;2022-10-16T06:13:51;142.73;;;42.17;;
3718;SDS011;1875;52.492;6.860;2022-10-16T06:16:20;141.47;;;43.63;;
3718;SDS011;1875;52.492;6.860;2022-10-16T06:18:50;131.17;;;44.73;;
3718;SDS011;1875;52.492;6.860;2022-10-16T06:21:19;144.27;;;44.30;;
3718;SDS011;1875;52.492;6.860;2022-10-16T06:23:48;137.70;;;40.67;;
3718;SDS011;1875;52.492;6.860;2022-10-16T06:26:17;142.90;;;45.43;;
3718;SDS011;1875;52.492;6.860;2022-10-16T06:28:46;145.37;;;47.07;;
3718;SDS011;1875;52.492;6.860;2022-10-16T06:31:13;137.77;;;41.10;;
3718;SDS011;1875;52.492;6.860;2022-10-16T06:33:43;141.80;;;42.20;;
3718;SDS011;1875;52.492;6.860;2022-10-16T06:36:12;141.13;;;42.10;;
3718;SDS011;1875;52.492;6.860;2022-10-16T06:38:41;141.87;;;44.10;;
3718;SDS011;1875;52.492;6.860;2022-10-16T06:41:09;141.20;;;42.20;;
3718;SDS011;1875;52.492;6.860;2022-10-16T06:43:38;136.37;;;39.40;;
3718;SDS011;1875;52.492;6.860;2022-10-16T06:46:06;134.67;;;41.80;;
3718;SDS011;1875;52.492;6.860;2022-10-16T06:48:34;142.20;;;44.40;;
3718;SDS011;1875;52.492;6.860;2022-10-16T06:51:05;141.10;;;42.30;;
3718;SDS011;1875;52.492;6.860;2022-10-16T06:53:36;140.60;;;42.37;;
3718;SDS011;1875;52.492;6.860;2022-10-16T06:56:25;142.47;;;44.20;;
3718;SDS011;1875;52.492;6.860;2022-10-16T06:58:53;139.80;;;40.13;;
3718;SDS011;1875;52.492;6.860;2022-10-16T07:01:22;148.50;;;47.30;;
3718;SDS011;1875;52.492;6.860;2022-10-16T07:03:51;139.23;;;40.80;;
3718;SDS011;1875;52.492;6.860;2022-10-16T07:06:21;141.67;;;42.63;;
3718;SDS011;1875;52.492;6.860;2022-10-16T07:08:50;142.33;;;45.63;;
3718;SDS011;1875;52.492;6.860;2022-10-16T07:11:19;135.83;;;41.90;;
3718;SDS011;1875;52.492;6.860;2022-10-16T07:13:47;143.23;;;43.70;;
3718;SDS011;1875;52.492;6.860;2022-10-16T07:16:21;140.67;;;42.67;;
3718;SDS011;1875;52.492;6.860;2022-10-16T07:18:50;139.60;;;43.43;;
3718;SDS011;1875;52.492;6.860;2022-10-16T07:21:25;144.43;;;47.17;;
3718;SDS011;1875;52.492;6.860;2022-10-16T07:23:56;139.03;;;41.80;;
3718;SDS011;1875;52.492;6.860;2022-10-16T07:26:24;142.47;;;42.73;;
3718;SDS011;1875;52.492;6.860;2022-10-16T07:28:53;143.07;;;43.07;;
3718;SDS011;1875;52.492;6.860;2022-10-16T07:31:21;142.13;;;43.97;;
3718;SDS011;1875;52.492;6.860;2022-10-16T07:33:49;147.43;;;43.70;;
3718;SDS011;1875;52.492;6.860;2022-10-16T07:36:18;139.20;;;40.40;;
3718;SDS011;1875;52.492;6.860;2022-10-16T07:38:47;149.53;;;47.80;;
3718;SDS011;1875;52.492;6.860;2022-10-16T07:41:19;148.50;;;44.97;;
3718;SDS011;1875;52.492;6.860;2022-10-16T07:43:47;145.53;;;41.80;;
3718;SDS011;1875;52.492;6.860;2022-10-16T07:46:15;144.00;;;40.60;;
3718;SDS011;1875;52.492;6.860;2022-10-16T07:48:43;154.50;;;50.77;;
3718;SDS011;1875;52.492;6.860;2022-10-16T07:51:13;148.73;;;43.17;;
3718;SDS011;1875;52.492;6.860;2022-10-16T07:53:42;147.20;;;42.60;;
3718;SDS011;1875;52.492;6.860;2022-10-16T07:56:11;149.90;;;44.43;;
3718;SDS011;1875;52.492;6.860;2022-10-16T07:58:39;153.40;;;49.43;;
3718;SDS011;1875;52.492;6.860;2022-10-16T08:01:08;149.13;;;42.37;;
3718;SDS011;1875;52.492;6.860;2022-10-16T08:03:37;149.70;;;43.57;;
3718;SDS011;1875;52.492;6.860;2022-10-16T08:06:04;151.33;;;43.10;;
3718;SDS011;1875;52.492;6.860;2022-10-16T08:08:32;150.67;;;43.47;;
3718;SDS011;1875;52.492;6.860;2022-10-16T08:11:00;150.23;;;42.93;;
3718;SDS011;1875;52.492;6.860;2022-10-16T08:13:31;153.17;;;44.20;;
3718;SDS011;1875;52.492;6.860;2022-10-16T08:15:59;154.13;;;46.00;;
3718;SDS011;1875;52.492;6.860;2022-10-16T18:28:56;160.13;;;46.90;;
3718;SDS011;1875;52.492;6.860;2022-10-16T18:31:24;155.50;;;56.20;;
3718;SDS011;1875;52.492;6.860;2022-10-16T18:33:52;144.57;;;44.20;;
3718;SDS011;1875;52.492;6.860;2022-10-16T18:36:23;149.83;;;50.67;;
3718;SDS011;1875;52.492;6.860;2022-10-16T18:38:51;147.67;;;46.60;;
3718;SDS011;1875;52.492;6.860;2022-10-16T18:41:20;145.33;;;45.80;;
3718;SDS011;1875;52.492;6.860;2022-10-16T18:43:48;144.27;;;43.97;;
3718;SDS011;1875;52.492;6.860;2022-10-16T18:46:16;146.27;;;43.00;;
3718;SDS011;1875;52.492;6.860;2022-10-16T18:48:45;146.77;;;46.90;;
3718;SDS011;1875;52.492;6.860;2022-10-16T18:51:14;132.20;;;42.33;;
3718;SDS011;1875;52.492;6.860;2022-10-16T18:53:45;143.13;;;41.97;;
3718;SDS011;1875;52.492;6.860;2022-10-16T18:56:13;144.03;;;43.30;;
3718;SDS011;1875;52.492;6.860;2022-10-16T18:58:42;140.43;;;47.10;;
3718;SDS011;1875;52.492;6.860;2022-10-16T19:01:11;143.57;;;42.10;;
3718;SDS011;1875;52.492;6.860;2022-10-16T19:03:42;135.83;;;42.40;;
3718;SDS011;1875;52.492;6.860;2022-10-16T19:06:10;139.37;;;41.27;;
3718;SDS011;1875;52.492;6.860;2022-10-16T19:08:39;148.93;;;47.70;;
3718;SDS011;1875;52.492;6.860;2022-10-16T19:11:11;143.47;;;42.10;;
3718;SDS011;1875;52.492;6.860;2022-10-16T19:13:41;141.37;;;39.93;;
3718;SDS011;1875;52.492;6.860;2022-10-16T19:16:09;143.73;;;40.00;;
3718;SDS011;1875;52.492;6.860;2022-10-16T19:18:46;159.27;;;56.63;;
3718;SDS011;1875;52.492;6.860;2022-10-16T19:21:14;130.00;;;41.67;;
3718;SDS011;1875;52.492;6.860;2022-10-16T19:23:42;144.37;;;41.33;;
3718;SDS011;1875;52.492;6.860;2022-10-16T19:26:12;147.57;;;44.73;;
3718;SDS011;1875;52.492;6.860;2022-10-16T19:28:41;153.87;;;50.70;;
3718;SDS011;1875;52.492;6.860;2022-10-16T19:31:10;153.17;;;46.63;;
3718;SDS011;1875;52.492;6.860;2022-10-16T19:33:39;154.83;;;45.93;;
3718;SDS011;1875;52.492;6.860;2022-10-16T19:36:08;156.17;;;43.03;;
3718;SDS011;1875;52.492;6.860;2022-10-16T19:38:36;162.80;;;50.57;;
3718;SDS011;1875;52.492;6.860;2022-10-16T19:41:04;159.87;;;45.27;;
3718;SDS011;1875;52.492;6.860;2022-10-16T19:43:34;164.57;;;49.30;;
3718;SDS011;1875;52.492;6.860;2022-10-16T19:46:02;157.67;;;44.00;;
3718;SDS011;1875;52.492;6.860;2022-10-16T19:48:30;161.97;;;46.80;;
3718;SDS011;1875;52.492;6.860;2022-10-16T19:50:58;166.67;;;50.70;;
3718;SDS011;1875;52.492;6.860;2022-10-16T19:53:26;164.53;;;48.37;;
3718;SDS011;1875;52.492;6.860;2022-10-16T19:55:54;161.43;;;44.87;;
3718;SDS011;1875;52.492;6.860;2022-10-16T19:58:22;164.97;;;47.30;;
3718;SDS011;1875;52.492;6.860;2022-10-16T20:00:52;162.80;;;44.97;;
3718;SDS011;1875;52.492;6.860;2022-10-16T20:03:20;170.27;;;49.90;;
3718;SDS011;1875;52.492;6.860;2022-10-16T20:05:51;165.63;;;46.87;;
3718;SDS011;1875;52.492;6.860;2022-10-16T20:08:19;164.47;;;46.33;;
3718;SDS011;1875;52.492;6.860;2022-10-16T20:10:47;171.43;;;52.93;;
3718;SDS011;1875;52.492;6.860;2022-10-16T20:13:15;171.00;;;50.13;;
3718;SDS011;1875;52.492;6.860;2022-10-16T20:15:43;174.70;;;55.30;;
3718;SDS011;1875;52.492;6.860;2022-10-16T20:18:12;165.47;;;45.80;;
3718;SDS011;1875;52.492;6.860;2022-10-16T20:20:41;166.87;;;47.67;;
3718;SDS011;1875;52.492;6.860;2022-10-16T20:23:10;167.27;;;47.63;;
3718;SDS011;1875;52.492;6.860;2022-10-16T20:25:38;166.33;;;46.00;;
3718;SDS011;1875;52.492;6.860;2022-10-16T20:28:07;168.97;;;48.17;;
3718;SDS011;1875;52.492;6.860;2022-10-16T20:30:36;166.40;;;45.30;;
3718;SDS011;1875;52.492;6.860;2022-10-16T20:33:04;166.63;;;46.17;;
3718;SDS011;1875;52.492;6.860;2022-10-16T20:35:35;169.90;;;48.57;;
3718;SDS011;1875;52.492;6.860;2022-10-16T20:38:03;166.43;;;46.67;;
3718;SDS011;1875;52.492;6.860;2022-10-16T20:40:32;165.50;;;45.47;;
3718;SDS011;1875;52.492;6.860;2022-10-16T20:43:00;169.43;;;48.13;;
3718;SDS011;1875;52.492;6.860;2022-10-16T20:45:28;170.60;;;49.90;;
3718;SDS011;1875;52.492;6.860;2022-10-16T20:47:56;165.23;;;45.43;;
3718;SDS011;1875;52.492;6.860;2022-10-16T20:50:24;171.13;;;49.70;;
3718;SDS011;1875;52.492;6.860;2022-10-16T20:52:55;165.13;;;44.40;;
3718;SDS011;1875;52.492;6.860;2022-10-16T20:55:23;173.33;;;51.37;;
3718;SDS011;1875;52.492;6.860;2022-10-16T20:57:51;167.63;;;46.57;;
3718;SDS011;1875;52.492;6.860;2022-10-16T21:00:19;164.57;;;45.07;;
3718;SDS011;1875;52.492;6.860;2022-10-16T21:02:48;168.90;;;48.57;;
3718;SDS011;1875;52.492;6.860;2022-10-16T21:05:16;170.30;;;47.83;;
3718;SDS011;1875;52.492;6.860;2022-10-16T21:07:44;172.17;;;49.67;;
3718;SDS011;1875;52.492;6.860;2022-10-16T21:10:13;170.20;;;48.40;;
3718;SDS011;1875;52.492;6.860;2022-10-16T21:12:41;169.30;;;47.27;;
3718;SDS011;1875;52.492;6.860;2022-10-16T21:15:09;168.97;;;46.53;;
3718;SDS011;1875;52.492;6.860;2022-10-16T21:17:40;175.00;;;52.73;;
3718;SDS011;1875;52.492;6.860;2022-10-16T21:20:08;154.73;;;43.37;;
3718;SDS011;1875;52.492;6.860;2022-10-16T21:22:36;165.77;;;45.90;;
3718;SDS011;1875;52.492;6.860;2022-10-16T21:25:04;169.43;;;47.13;;
3718;SDS011;1875;52.492;6.860;2022-10-16T21:27:36;167.63;;;46.07;;
3718;SDS011;1875;52.492;6.860;2022-10-16T21:30:04;168.70;;;47.10;;
3718;SDS011;1875;52.492;6.860;2022-10-16T21:32:33;169.73;;;47.77;;
3718;SDS011;1875;52.492;6.860;2022-10-16T21:35:01;169.03;;;47.03;;
3718;SDS011;1875;52.492;6.860;2022-10-16T21:37:29;158.80;;;47.10;;
3718;SDS011;1875;52.492;6.860;2022-10-16T21:39:57;159.53;;;48.50;;
3718;SDS011;1875;52.492;6.860;2022-10-16T21:42:24;164.03;;;51.50;;
3718;SDS011;1875;52.492;6.860;2022-10-16T21:44:53;159.07;;;48.23;;
3718;SDS011;1875;52.492;6.860;2022-10-16T21:47:21;163.37;;;46.57;;
3718;SDS011;1875;52.492;6.860;2022-10-16T21:49:48;166.37;;;45.20;;
3718;SDS011;1875;52.492;6.860;2022-10-16T21:52:16;165.43;;;47.47;;
3718;SDS011;1875;52.492;6.860;2022-10-16T21:54:44;165.47;;;47.07;;
3718;SDS011;1875;52.492;6.860;2022-10-16T21:57:11;164.33;;;46.37;;
3718;SDS011;1875;52.492;6.860;2022-10-16T21:59:39;164.53;;;44.13;;
3718;SDS011;1875;52.492;6.860;2022-10-16T22:02:08;162.47;;;45.70;;
3718;SDS011;1875;52.492;6.860;2022-10-16T22:04:35;167.83;;;46.03;;
3718;SDS011;1875;52.492;6.860;2022-10-16T22:07:03;158.43;;;46.57;;
3718;SDS011;1875;52.492;6.860;2022-10-16T22:09:30;169.70;;;47.50;;
3718;SDS011;1875;52.492;6.860;2022-10-16T22:11:58;160.83;;;48.80;;
3718;SDS011;1875;52.492;6.860;2022-10-16T22:14:25;162.67;;;47.27;;
3718;SDS011;1875;52.492;6.860;2022-10-16T22:16:53;165.60;;;46.90;;
3718;SDS011;1875;52.492;6.860;2022-10-16T22:19:22;171.93;;;49.57;;
3718;SDS011;1875;52.492;6.860;2022-10-16T22:21:49;167.50;;;49.07;;
3718;SDS011;1875;52.492;6.860;2022-10-16T22:24:22;167.00;;;45.00;;
3718;SDS011;1875;52.492;6.860;2022-10-16T22:26:50;159.93;;;49.30;;
3718;SDS011;1875;52.492;6.860;2022-10-16T22:29:17;157.63;;;46.60;;
3718;SDS011;1875;52.492;6.860;2022-10-16T22:31:45;165.10;;;44.90;;
3718;SDS011;1875;52.492;6.860;2022-10-16T22:34:17;157.37;;;46.77;;
3718;SDS011;1875;52.492;6.860;2022-10-16T22:36:48;156.73;;;46.43;;
3718;SDS011;1875;52.492;6.860;2022-10-16T22:39:16;171.33;;;50.27;;
3718;SDS011;1875;52.492;6.860;2022-10-16T22:41:44;166.47;;;54.73;;
3718;SDS011;1875;52.492;6.860;2022-10-16T22:44:11;160.80;;;42.07;;
3718;SDS011;1875;52.492;6.860;2022-10-16T22:46:39;167.37;;;46.70;;
3718;SDS011;1875;52.492;6.860;2022-10-16T22:49:06;158.77;;;47.23;;
3718;SDS011;1875;52.492;6.860;2022-10-16T22:51:34;157.93;;;47.20;;
3718;SDS011;1875;52.492;6.860;2022-10-16T22:54:03;160.47;;;46.47;;
3718;SDS011;1875;52.492;6.860;2022-10-16T22:56:31;173.93;;;52.97;;
3718;SDS011;1875;52.492;6.860;2022-10-16T22:58:58;167.30;;;46.40;;
3718;SDS011;1875;52.492;6.860;2022-10-16T23:01:26;163.83;;;47.07;;
3718;SDS011;1875;52.492;6.860;2022-10-16T23:03:55;162.70;;;45.67;;
3718;SDS011;1875;52.492;6.860;2022-10-16T23:06:23;161.27;;;44.33;;
3718;SDS011;1875;52.492;6.860;2022-10-16T23:08:51;165.90;;;50.23;;
3718;SDS011;1875;52.492;6.860;2022-10-16T23:11:20;172.03;;;54.70;;
3718;SDS011;1875;52.492;6.860;2022-10-16T23:13:48;165.70;;;46.07;;
3718;SDS011;1875;52.492;6.860;2022-10-16T23:16:17;166.87;;;46.40;;
3718;SDS011;1875;52.492;6.860;2022-10-16T23:18:45;169.50;;;52.03;;
3718;SDS011;1875;52.492;6.860;2022-10-16T23:21:15;161.87;;;46.33;;
3718;SDS011;1875;52.492;6.860;2022-10-16T23:23:44;161.17;;;45.97;;
3718;SDS011;1875;52.492;6.860;2022-10-16T23:26:12;168.20;;;52.43;;
3718;SDS011;1875;52.492;6.860;2022-10-16T23:28:42;166.87;;;50.87;;
3718;SDS011;1875;52.492;6.860;2022-10-16T23:31:10;163.27;;;46.37;;
3718;SDS011;1875;52.492;6.860;2022-10-16T23:33:38;163.57;;;45.00;;
3718;SDS011;1875;52.492;6.860;2022-10-16T23:36:06;159.63;;;44.60;;
3718;SDS011;1875;52.492;6.860;2022-10-16T23:38:35;171.70;;;51.73;;
3718;SDS011;1875;52.492;6.860;2022-10-16T23:41:03;167.03;;;47.53;;
3718;SDS011;1875;52.492;6.860;2022-10-16T23:43:30;164.57;;;45.93;;
3718;SDS011;1875;52.492;6.860;2022-10-16T23:45:59;162.67;;;46.60;;
3718;SDS011;1875;52.492;6.860;2022-10-16T23:48:27;173.87;;;51.93;;
3718;SDS011;1875;52.492;6.860;2022-10-16T23:50:55;165.10;;;46.20;;
3718;SDS011;1875;52.492;6.860;2022-10-16T23:53:23;165.30;;;46.50;;
3718;SDS011;1875;52.492;6.860;2022-10-16T23:55:50;163.93;;;45.67;;
3718;SDS011;1875;52.492;6.860;2022-10-16T23:58:18;170.10;;;50.20;;
